sensor_id;sensor_type;location;lat;lon;timestamp;temperature;humidity
22526;DHT22;11429;50.842;4.386;2023-05-16T00:00:24;10.10;99.90
22526;DHT22;11429;50.842;4.386;2023-05-16T00:02:50;10.10;99.90
22526;DHT22;11429;50.842;4.386;2023-05-16T00:05:16;10.00;99.90
22526;DHT22;11429;50.842;4.386;2023-05-16T00:07:43;10.00;99.90
22526;DHT22;11429;50.842;4.386;2023-05-16T00:10:10;10.00;99.90
22526;DHT22;11429;50.842;4.386;2023-05-16T00:12:36;9.90;99.90
22526;DHT22;11429;50.842;4.386;2023-05-16T00:15:07;9.90;99.90
22526;DHT22;11429;50.842;4.386;2023-05-16T00:17:33;9.90;99.90
22526;DHT22;11429;50.842;4.386;2023-05-16T00:20:00;9.90;99.90
22526;DHT22;11429;50.842;4.386;2023-05-16T00:22:32;9.80;99.90
22526;DHT22;11429;50.842;4.386;2023-05-16T00:24:57;9.70;99.90
22526;DHT22;11429;50.842;4.386;2023-05-16T00:27:23;9.70;99.90
22526;DHT22;11429;50.842;4.386;2023-05-16T00:29:49;9.70;99.90
22526;DHT22;11429;50.842;4.386;2023-05-16T00:32:15;9.60;99.90
22526;DHT22;11429;50.842;4.386;2023-05-16T00:34:41;9.60;99.90
22526;DHT22;11429;50.842;4.386;2023-05-16T00:37:06;9.60;99.90
22526;DHT22;11429;50.842;4.386;2023-05-16T00:39:32;9.60;99.90
22526;DHT22;11429;50.842;4.386;2023-05-16T00:41:58;9.60;99.90
22526;DHT22;11429;50.842;4.386;2023-05-16T00:44:23;9.50;99.90
22526;DHT22;11429;50.842;4.386;2023-05-16T00:46:49;9.50;99.90
22526;DHT22;11429;50.842;4.386;2023-05-16T00:49:15;9.60;99.90
22526;DHT22;11429;50.842;4.386;2023-05-16T00:51:41;9.50;99.90
22526;DHT22;11429;50.842;4.386;2023-05-16T00:54:07;9.50;99.90
22526;DHT22;11429;50.842;4.386;2023-05-16T00:56:33;9.40;99.90
22526;DHT22;11429;50.842;4.386;2023-05-16T00:58:59;9.40;99.90
22526;DHT22;11429;50.842;4.386;2023-05-16T01:01:25;9.40;99.90
22526;DHT22;11429;50.842;4.386;2023-05-16T01:03:52;9.30;99.90
22526;DHT22;11429;50.842;4.386;2023-05-16T01:06:18;9.30;99.90
22526;DHT22;11429;50.842;4.386;2023-05-16T01:08:44;9.30;99.90
22526;DHT22;11429;50.842;4.386;2023-05-16T01:17:15;9.10;99.90
22526;DHT22;11429;50.842;4.386;2023-05-16T01:19:59;9.10;99.90
22526;DHT22;11429;50.842;4.386;2023-05-16T01:22:53;9.10;99.90
22526;DHT22;11429;50.842;4.386;2023-05-16T01:28:10;9.00;99.90
22526;DHT22;11429;50.842;4.386;2023-05-16T01:30:39;9.00;99.90
22526;DHT22;11429;50.842;4.386;2023-05-16T01:33:06;9.00;99.90
22526;DHT22;11429;50.842;4.386;2023-05-16T01:35:32;9.00;99.90
22526;DHT22;11429;50.842;4.386;2023-05-16T01:38:10;9.00;99.90
22526;DHT22;11429;50.842;4.386;2023-05-16T01:40:47;8.90;99.90
22526;DHT22;11429;50.842;4.386;2023-05-16T01:43:20;8.90;99.90
22526;DHT22;11429;50.842;4.386;2023-05-16T01:45:54;8.90;99.90
22526;DHT22;11429;50.842;4.386;2023-05-16T01:48:25;8.80;99.90
22526;DHT22;11429;50.842;4.386;2023-05-16T01:50:54;8.70;99.90
22526;DHT22;11429;50.842;4.386;2023-05-16T01:53:28;8.70;99.90
22526;DHT22;11429;50.842;4.386;2023-05-16T01:55:59;8.70;99.90
22526;DHT22;11429;50.842;4.386;2023-05-16T01:58:29;8.70;99.90
22526;DHT22;11429;50.842;4.386;2023-05-16T02:01:01;8.70;99.90
22526;DHT22;11429;50.842;4.386;2023-05-16T02:03:30;8.60;99.90
22526;DHT22;11429;50.842;4.386;2023-05-16T02:05:57;8.60;99.90
22526;DHT22;11429;50.842;4.386;2023-05-16T02:08:23;8.50;99.90
22526;DHT22;11429;50.842;4.386;2023-05-16T02:13:18;8.60;99.90
22526;DHT22;11429;50.842;4.386;2023-05-16T02:15:44;8.50;99.90
22526;DHT22;11429;50.842;4.386;2023-05-16T02:18:10;8.50;99.90
22526;DHT22;11429;50.842;4.386;2023-05-16T02:20:36;8.50;99.90
22526;DHT22;11429;50.842;4.386;2023-05-16T02:23:02;8.60;99.90
22526;DHT22;11429;50.842;4.386;2023-05-16T02:25:28;8.50;99.90
22526;DHT22;11429;50.842;4.386;2023-05-16T02:27:54;8.50;99.90
22526;DHT22;11429;50.842;4.386;2023-05-16T02:30:21;8.40;99.90
22526;DHT22;11429;50.842;4.386;2023-05-16T02:32:46;8.40;99.90
22526;DHT22;11429;50.842;4.386;2023-05-16T02:35:13;8.40;99.90
22526;DHT22;11429;50.842;4.386;2023-05-16T02:37:40;8.40;99.90
22526;DHT22;11429;50.842;4.386;2023-05-16T02:40:07;8.30;99.90
22526;DHT22;11429;50.842;4.386;2023-05-16T02:42:33;8.40;99.90
22526;DHT22;11429;50.842;4.386;2023-05-16T02:44:59;8.40;99.90
22526;DHT22;11429;50.842;4.386;2023-05-16T02:47:25;8.40;99.90
22526;DHT22;11429;50.842;4.386;2023-05-16T02:49:51;8.30;99.90
22526;DHT22;11429;50.842;4.386;2023-05-16T02:52:17;8.20;99.90
22526;DHT22;11429;50.842;4.386;2023-05-16T02:54:43;8.20;99.90
22526;DHT22;11429;50.842;4.386;2023-05-16T02:57:09;8.20;99.90
22526;DHT22;11429;50.842;4.386;2023-05-16T02:59:35;8.20;99.90
22526;DHT22;11429;50.842;4.386;2023-05-16T03:02:01;8.30;99.90
22526;DHT22;11429;50.842;4.386;2023-05-16T03:04:27;8.20;99.90
22526;DHT22;11429;50.842;4.386;2023-05-16T03:06:52;8.10;99.90
22526;DHT22;11429;50.842;4.386;2023-05-16T03:09:18;8.10;99.90
22526;DHT22;11429;50.842;4.386;2023-05-16T03:11:44;8.20;99.90
22526;DHT22;11429;50.842;4.386;2023-05-16T03:14:10;8.20;99.90
22526;DHT22;11429;50.842;4.386;2023-05-16T03:16:37;8.10;99.90
22526;DHT22;11429;50.842;4.386;2023-05-16T03:19:04;8.20;99.90
22526;DHT22;11429;50.842;4.386;2023-05-16T03:21:29;8.10;99.90
22526;DHT22;11429;50.842;4.386;2023-05-16T03:23:56;8.10;99.90
22526;DHT22;11429;50.842;4.386;2023-05-16T03:26:26;8.00;99.90
22526;DHT22;11429;50.842;4.386;2023-05-16T03:28:51;8.10;99.90
22526;DHT22;11429;50.842;4.386;2023-05-16T03:31:17;8.00;99.90
22526;DHT22;11429;50.842;4.386;2023-05-16T03:33:43;8.00;99.90
22526;DHT22;11429;50.842;4.386;2023-05-16T03:36:09;8.10;99.90
22526;DHT22;11429;50.842;4.386;2023-05-16T03:38:35;8.10;99.90
22526;DHT22;11429;50.842;4.386;2023-05-16T03:41:01;8.10;99.90
22526;DHT22;11429;50.842;4.386;2023-05-16T03:43:27;8.10;99.90
22526;DHT22;11429;50.842;4.386;2023-05-16T03:45:53;8.20;99.90
22526;DHT22;11429;50.842;4.386;2023-05-16T03:48:19;8.20;99.90
22526;DHT22;11429;50.842;4.386;2023-05-16T03:50:44;8.10;99.90
22526;DHT22;11429;50.842;4.386;2023-05-16T03:53:10;8.10;99.90
22526;DHT22;11429;50.842;4.386;2023-05-16T03:55:36;8.10;99.90
22526;DHT22;11429;50.842;4.386;2023-05-16T03:58:02;8.20;99.90
22526;DHT22;11429;50.842;4.386;2023-05-16T04:00:28;8.30;99.90
22526;DHT22;11429;50.842;4.386;2023-05-16T04:02:53;8.20;99.90
22526;DHT22;11429;50.842;4.386;2023-05-16T04:05:19;8.20;99.90
22526;DHT22;11429;50.842;4.386;2023-05-16T04:07:45;8.20;99.90
22526;DHT22;11429;50.842;4.386;2023-05-16T04:10:11;8.10;99.90
22526;DHT22;11429;50.842;4.386;2023-05-16T04:12:37;8.20;99.90
22526;DHT22;11429;50.842;4.386;2023-05-16T04:15:04;8.20;99.90
22526;DHT22;11429;50.842;4.386;2023-05-16T04:17:30;8.20;99.90
22526;DHT22;11429;50.842;4.386;2023-05-16T04:19:56;8.20;99.90
22526;DHT22;11429;50.842;4.386;2023-05-16T04:22:22;8.40;99.90
22526;DHT22;11429;50.842;4.386;2023-05-16T04:24:48;8.60;99.90
22526;DHT22;11429;50.842;4.386;2023-05-16T04:27:13;8.50;99.90
22526;DHT22;11429;50.842;4.386;2023-05-16T04:29:39;8.40;99.90
22526;DHT22;11429;50.842;4.386;2023-05-16T04:32:05;8.30;99.90
22526;DHT22;11429;50.842;4.386;2023-05-16T04:34:32;8.30;99.90
22526;DHT22;11429;50.842;4.386;2023-05-16T04:36:58;8.40;99.90
22526;DHT22;11429;50.842;4.386;2023-05-16T04:39:24;8.50;99.90
22526;DHT22;11429;50.842;4.386;2023-05-16T04:41:50;8.50;99.90
22526;DHT22;11429;50.842;4.386;2023-05-16T04:44:16;8.60;99.90
22526;DHT22;11429;50.842;4.386;2023-05-16T04:46:42;8.60;99.90
22526;DHT22;11429;50.842;4.386;2023-05-16T04:49:07;8.70;99.90
22526;DHT22;11429;50.842;4.386;2023-05-16T04:51:33;8.70;99.90
22526;DHT22;11429;50.842;4.386;2023-05-16T04:53:59;8.70;99.90
22526;DHT22;11429;50.842;4.386;2023-05-16T04:56:25;8.70;99.90
22526;DHT22;11429;50.842;4.386;2023-05-16T04:58:53;8.60;99.90
22526;DHT22;11429;50.842;4.386;2023-05-16T05:01:19;8.70;99.90
22526;DHT22;11429;50.842;4.386;2023-05-16T05:03:45;8.80;99.90
22526;DHT22;11429;50.842;4.386;2023-05-16T05:06:11;9.00;99.90
22526;DHT22;11429;50.842;4.386;2023-05-16T05:08:37;9.20;99.90
22526;DHT22;11429;50.842;4.386;2023-05-16T05:11:02;9.60;99.90
22526;DHT22;11429;50.842;4.386;2023-05-16T05:13:28;10.10;99.90
22526;DHT22;11429;50.842;4.386;2023-05-16T05:15:54;10.90;99.90
22526;DHT22;11429;50.842;4.386;2023-05-16T05:18:20;11.50;99.90
22526;DHT22;11429;50.842;4.386;2023-05-16T05:20:45;12.50;99.90
22526;DHT22;11429;50.842;4.386;2023-05-16T05:23:12;13.20;99.90
22526;DHT22;11429;50.842;4.386;2023-05-16T05:25:38;13.80;99.90
22526;DHT22;11429;50.842;4.386;2023-05-16T05:28:05;13.70;99.90
22526;DHT22;11429;50.842;4.386;2023-05-16T05:30:31;14.90;99.90
22526;DHT22;11429;50.842;4.386;2023-05-16T05:32:56;15.10;99.90
22526;DHT22;11429;50.842;4.386;2023-05-16T05:35:22;15.30;99.90
22526;DHT22;11429;50.842;4.386;2023-05-16T05:37:48;15.60;99.90
22526;DHT22;11429;50.842;4.386;2023-05-16T05:40:14;15.90;99.90
22526;DHT22;11429;50.842;4.386;2023-05-16T05:42:41;16.20;99.90
22526;DHT22;11429;50.842;4.386;2023-05-16T05:45:07;16.60;99.90
22526;DHT22;11429;50.842;4.386;2023-05-16T05:47:33;16.70;99.90
22526;DHT22;11429;50.842;4.386;2023-05-16T05:49:58;17.50;99.90
22526;DHT22;11429;50.842;4.386;2023-05-16T05:52:25;17.20;99.90
22526;DHT22;11429;50.842;4.386;2023-05-16T05:54:53;18.70;99.90
22526;DHT22;11429;50.842;4.386;2023-05-16T05:57:18;17.90;99.90
22526;DHT22;11429;50.842;4.386;2023-05-16T05:59:45;17.90;99.90
22526;DHT22;11429;50.842;4.386;2023-05-16T06:02:11;18.70;99.90
22526;DHT22;11429;50.842;4.386;2023-05-16T06:04:37;20.30;99.90
22526;DHT22;11429;50.842;4.386;2023-05-16T06:07:03;20.20;99.90
22526;DHT22;11429;50.842;4.386;2023-05-16T06:09:29;19.50;99.90
22526;DHT22;11429;50.842;4.386;2023-05-16T06:11:55;19.10;99.90
22526;DHT22;11429;50.842;4.386;2023-05-16T06:14:21;19.50;99.90
22526;DHT22;11429;50.842;4.386;2023-05-16T06:16:47;20.70;99.90
22526;DHT22;11429;50.842;4.386;2023-05-16T06:19:12;21.50;99.90
22526;DHT22;11429;50.842;4.386;2023-05-16T06:21:41;21.30;99.90
22526;DHT22;11429;50.842;4.386;2023-05-16T06:24:06;22.80;99.90
22526;DHT22;11429;50.842;4.386;2023-05-16T06:26:32;24.20;99.90
22526;DHT22;11429;50.842;4.386;2023-05-16T06:28:58;22.60;99.90
22526;DHT22;11429;50.842;4.386;2023-05-16T06:31:24;22.50;99.90
22526;DHT22;11429;50.842;4.386;2023-05-16T06:33:49;22.00;99.90
22526;DHT22;11429;50.842;4.386;2023-05-16T06:36:15;23.20;99.90
22526;DHT22;11429;50.842;4.386;2023-05-16T06:38:41;22.90;99.90
22526;DHT22;11429;50.842;4.386;2023-05-16T06:41:07;22.00;99.90
22526;DHT22;11429;50.842;4.386;2023-05-16T06:43:33;20.90;99.90
22526;DHT22;11429;50.842;4.386;2023-05-16T06:45:58;20.20;99.90
22526;DHT22;11429;50.842;4.386;2023-05-16T06:48:24;19.90;99.90
22526;DHT22;11429;50.842;4.386;2023-05-16T06:50:50;20.10;99.90
22526;DHT22;11429;50.842;4.386;2023-05-16T06:53:18;19.60;99.90
22526;DHT22;11429;50.842;4.386;2023-05-16T06:55:44;19.70;99.90
22526;DHT22;11429;50.842;4.386;2023-05-16T06:58:10;17.90;99.90
22526;DHT22;11429;50.842;4.386;2023-05-16T07:00:36;17.50;99.90
22526;DHT22;11429;50.842;4.386;2023-05-16T07:03:02;17.20;99.90
22526;DHT22;11429;50.842;4.386;2023-05-16T07:05:30;16.60;99.90
22526;DHT22;11429;50.842;4.386;2023-05-16T07:07:56;16.70;99.90
22526;DHT22;11429;50.842;4.386;2023-05-16T07:10:22;19.20;99.90
22526;DHT22;11429;50.842;4.386;2023-05-16T07:12:48;21.50;99.90
22526;DHT22;11429;50.842;4.386;2023-05-16T07:15:14;22.40;99.90
22526;DHT22;11429;50.842;4.386;2023-05-16T07:17:39;20.00;99.90
22526;DHT22;11429;50.842;4.386;2023-05-16T07:20:06;19.60;99.90
22526;DHT22;11429;50.842;4.386;2023-05-16T07:22:32;18.60;99.90
22526;DHT22;11429;50.842;4.386;2023-05-16T07:24:58;17.60;99.90
22526;DHT22;11429;50.842;4.386;2023-05-16T07:27:26;16.40;99.90
22526;DHT22;11429;50.842;4.386;2023-05-16T07:29:52;15.10;99.90
22526;DHT22;11429;50.842;4.386;2023-05-16T07:32:18;14.30;99.90
22526;DHT22;11429;50.842;4.386;2023-05-16T07:34:44;13.90;99.90
22526;DHT22;11429;50.842;4.386;2023-05-16T07:37:10;14.70;99.90
22526;DHT22;11429;50.842;4.386;2023-05-16T07:39:40;14.70;99.90
22526;DHT22;11429;50.842;4.386;2023-05-16T07:42:07;15.10;99.90
22526;DHT22;11429;50.842;4.386;2023-05-16T07:44:33;14.80;99.90
22526;DHT22;11429;50.842;4.386;2023-05-16T07:46:59;14.60;99.90
22526;DHT22;11429;50.842;4.386;2023-05-16T07:49:25;14.20;99.90
22526;DHT22;11429;50.842;4.386;2023-05-16T07:51:50;14.50;99.90
22526;DHT22;11429;50.842;4.386;2023-05-16T07:54:16;16.50;99.90
22526;DHT22;11429;50.842;4.386;2023-05-16T07:56:42;18.50;99.90
22526;DHT22;11429;50.842;4.386;2023-05-16T07:59:08;19.90;99.90
22526;DHT22;11429;50.842;4.386;2023-05-16T08:01:34;21.00;99.90
22526;DHT22;11429;50.842;4.386;2023-05-16T08:04:00;22.10;99.90
22526;DHT22;11429;50.842;4.386;2023-05-16T08:06:25;22.00;99.90
22526;DHT22;11429;50.842;4.386;2023-05-16T08:08:51;21.70;99.90
22526;DHT22;11429;50.842;4.386;2023-05-16T08:11:18;20.10;99.90
22526;DHT22;11429;50.842;4.386;2023-05-16T08:13:47;18.40;99.90
22526;DHT22;11429;50.842;4.386;2023-05-16T08:16:13;17.60;99.90
22526;DHT22;11429;50.842;4.386;2023-05-16T08:18:38;18.80;99.90
22526;DHT22;11429;50.842;4.386;2023-05-16T08:21:05;19.50;99.90
22526;DHT22;11429;50.842;4.386;2023-05-16T08:23:31;18.60;99.90
22526;DHT22;11429;50.842;4.386;2023-05-16T08:25:56;18.70;99.90
22526;DHT22;11429;50.842;4.386;2023-05-16T08:28:23;18.90;99.90
22526;DHT22;11429;50.842;4.386;2023-05-16T08:30:48;19.10;99.90
22526;DHT22;11429;50.842;4.386;2023-05-16T08:33:14;19.30;99.90
22526;DHT22;11429;50.842;4.386;2023-05-16T08:35:44;19.30;99.90
22526;DHT22;11429;50.842;4.386;2023-05-16T08:38:09;18.50;99.90
22526;DHT22;11429;50.842;4.386;2023-05-16T08:40:35;17.30;99.90
22526;DHT22;11429;50.842;4.386;2023-05-16T08:43:01;16.20;99.90
22526;DHT22;11429;50.842;4.386;2023-05-16T08:45:27;16.10;99.90
22526;DHT22;11429;50.842;4.386;2023-05-16T08:47:54;17.00;99.90
22526;DHT22;11429;50.842;4.386;2023-05-16T08:50:21;18.60;99.90
22526;DHT22;11429;50.842;4.386;2023-05-16T08:52:51;19.00;99.90
22526;DHT22;11429;50.842;4.386;2023-05-16T08:55:19;18.20;99.90
22526;DHT22;11429;50.842;4.386;2023-05-16T08:57:45;19.10;99.90
22526;DHT22;11429;50.842;4.386;2023-05-16T09:00:11;20.20;99.90
22526;DHT22;11429;50.842;4.386;2023-05-16T09:02:41;20.30;99.90
22526;DHT22;11429;50.842;4.386;2023-05-16T09:05:12;22.30;99.90
22526;DHT22;11429;50.842;4.386;2023-05-16T09:07:38;22.40;99.90
22526;DHT22;11429;50.842;4.386;2023-05-16T09:10:06;22.60;99.90
22526;DHT22;11429;50.842;4.386;2023-05-16T09:12:33;24.20;99.90
22526;DHT22;11429;50.842;4.386;2023-05-16T09:15:04;25.00;99.90
22526;DHT22;11429;50.842;4.386;2023-05-16T09:17:38;24.70;99.90
22526;DHT22;11429;50.842;4.386;2023-05-16T09:20:08;23.40;99.90
22526;DHT22;11429;50.842;4.386;2023-05-16T09:22:34;23.80;99.90
22526;DHT22;11429;50.842;4.386;2023-05-16T09:25:00;24.70;99.90
22526;DHT22;11429;50.842;4.386;2023-05-16T09:27:30;22.50;99.90
22526;DHT22;11429;50.842;4.386;2023-05-16T09:29:57;20.80;99.90
22526;DHT22;11429;50.842;4.386;2023-05-16T09:32:24;21.60;99.90
22526;DHT22;11429;50.842;4.386;2023-05-16T09:34:52;22.50;99.90
22526;DHT22;11429;50.842;4.386;2023-05-16T09:37:18;21.00;99.90
22526;DHT22;11429;50.842;4.386;2023-05-16T09:39:49;19.70;99.90
22526;DHT22;11429;50.842;4.386;2023-05-16T09:42:17;18.50;99.90
22526;DHT22;11429;50.842;4.386;2023-05-16T09:44:50;18.80;99.90
22526;DHT22;11429;50.842;4.386;2023-05-16T09:47:19;19.80;99.90
22526;DHT22;11429;50.842;4.386;2023-05-16T09:49:46;20.20;99.90
22526;DHT22;11429;50.842;4.386;2023-05-16T09:52:15;20.00;99.90
22526;DHT22;11429;50.842;4.386;2023-05-16T09:54:41;18.60;99.90
22526;DHT22;11429;50.842;4.386;2023-05-16T09:57:07;18.60;99.90
22526;DHT22;11429;50.842;4.386;2023-05-16T09:59:37;19.40;99.90
22526;DHT22;11429;50.842;4.386;2023-05-16T10:02:05;19.40;99.90
22526;DHT22;11429;50.842;4.386;2023-05-16T10:04:33;19.80;99.90
22526;DHT22;11429;50.842;4.386;2023-05-16T10:07:03;22.00;99.90
22526;DHT22;11429;50.842;4.386;2023-05-16T10:09:33;22.30;99.90
22526;DHT22;11429;50.842;4.386;2023-05-16T10:12:03;21.00;99.90
22526;DHT22;11429;50.842;4.386;2023-05-16T10:14:33;19.60;99.90
22526;DHT22;11429;50.842;4.386;2023-05-16T10:17:00;18.40;99.90
22526;DHT22;11429;50.842;4.386;2023-05-16T10:19:29;19.80;99.90
22526;DHT22;11429;50.842;4.386;2023-05-16T10:21:58;21.40;99.90
22526;DHT22;11429;50.842;4.386;2023-05-16T10:27:06;20.10;99.90
22526;DHT22;11429;50.842;4.386;2023-05-16T10:29:32;19.60;99.90
22526;DHT22;11429;50.842;4.386;2023-05-16T10:31:58;18.90;99.90
22526;DHT22;11429;50.842;4.386;2023-05-16T10:34:24;18.50;99.90
22526;DHT22;11429;50.842;4.386;2023-05-16T10:36:51;19.50;99.90
22526;DHT22;11429;50.842;4.386;2023-05-16T10:39:18;20.40;99.90
22526;DHT22;11429;50.842;4.386;2023-05-16T10:41:44;19.70;99.90
22526;DHT22;11429;50.842;4.386;2023-05-16T10:44:14;20.20;99.90
22526;DHT22;11429;50.842;4.386;2023-05-16T10:46:42;20.70;99.90
22526;DHT22;11429;50.842;4.386;2023-05-16T10:49:24;21.30;99.90
22526;DHT22;11429;50.842;4.386;2023-05-16T10:52:10;21.40;99.90
22526;DHT22;11429;50.842;4.386;2023-05-16T10:54:40;20.20;99.90
22526;DHT22;11429;50.842;4.386;2023-05-16T10:57:09;18.80;99.90
22526;DHT22;11429;50.842;4.386;2023-05-16T10:59:41;18.20;99.90
22526;DHT22;11429;50.842;4.386;2023-05-16T11:02:25;18.30;99.90
22526;DHT22;11429;50.842;4.386;2023-05-16T11:04:52;19.20;99.90
22526;DHT22;11429;50.842;4.386;2023-05-16T11:07:20;20.90;99.90
22526;DHT22;11429;50.842;4.386;2023-05-16T11:10:01;21.50;99.90
22526;DHT22;11429;50.842;4.386;2023-05-16T11:12:42;20.80;99.90
22526;DHT22;11429;50.842;4.386;2023-05-16T11:15:20;19.90;99.90
22526;DHT22;11429;50.842;4.386;2023-05-16T11:17:46;18.90;99.90
22526;DHT22;11429;50.842;4.386;2023-05-16T11:20:44;19.50;99.90
22526;DHT22;11429;50.842;4.386;2023-05-16T11:23:20;19.50;99.90
22526;DHT22;11429;50.842;4.386;2023-05-16T11:25:56;18.70;99.90
22526;DHT22;11429;50.842;4.386;2023-05-16T11:28:24;18.20;99.90
22526;DHT22;11429;50.842;4.386;2023-05-16T11:30:53;19.10;99.90
22526;DHT22;11429;50.842;4.386;2023-05-16T11:33:21;19.40;99.90
22526;DHT22;11429;50.842;4.386;2023-05-16T11:36:04;19.50;99.90
22526;DHT22;11429;50.842;4.386;2023-05-16T11:38:31;20.10;99.90
22526;DHT22;11429;50.842;4.386;2023-05-16T11:41:05;19.70;99.90
22526;DHT22;11429;50.842;4.386;2023-05-16T11:43:42;18.90;99.90
22526;DHT22;11429;50.842;4.386;2023-05-16T11:46:12;18.80;99.90
22526;DHT22;11429;50.842;4.386;2023-05-16T11:48:38;19.20;99.90
22526;DHT22;11429;50.842;4.386;2023-05-16T11:51:04;19.10;99.90
22526;DHT22;11429;50.842;4.386;2023-05-16T11:53:30;19.90;99.90
22526;DHT22;11429;50.842;4.386;2023-05-16T11:55:56;20.70;99.90
22526;DHT22;11429;50.842;4.386;2023-05-16T11:58:24;19.10;99.90
22526;DHT22;11429;50.842;4.386;2023-05-16T12:00:50;18.10;99.90
22526;DHT22;11429;50.842;4.386;2023-05-16T12:03:18;18.10;99.90
22526;DHT22;11429;50.842;4.386;2023-05-16T12:05:55;18.20;99.90
22526;DHT22;11429;50.842;4.386;2023-05-16T12:08:23;18.10;99.90
22526;DHT22;11429;50.842;4.386;2023-05-16T12:10:51;18.50;99.90
22526;DHT22;11429;50.842;4.386;2023-05-16T12:13:21;18.50;99.90
22526;DHT22;11429;50.842;4.386;2023-05-16T12:15:47;17.80;99.90
22526;DHT22;11429;50.842;4.386;2023-05-16T12:18:14;18.30;99.90
22526;DHT22;11429;50.842;4.386;2023-05-16T12:20:41;19.10;99.90
22526;DHT22;11429;50.842;4.386;2023-05-16T12:23:11;19.40;99.90
22526;DHT22;11429;50.842;4.386;2023-05-16T12:25:37;19.50;99.90
22526;DHT22;11429;50.842;4.386;2023-05-16T12:28:08;19.00;99.90
22526;DHT22;11429;50.842;4.386;2023-05-16T12:30:40;18.90;99.90
22526;DHT22;11429;50.842;4.386;2023-05-16T12:33:09;19.10;99.90
22526;DHT22;11429;50.842;4.386;2023-05-16T12:35:40;19.40;99.90
22526;DHT22;11429;50.842;4.386;2023-05-16T12:38:11;19.30;99.90
22526;DHT22;11429;50.842;4.386;2023-05-16T12:40:39;18.70;99.90
22526;DHT22;11429;50.842;4.386;2023-05-16T12:43:14;18.80;99.90
22526;DHT22;11429;50.842;4.386;2023-05-16T12:45:40;18.60;99.90
22526;DHT22;11429;50.842;4.386;2023-05-16T12:48:13;18.50;99.90
22526;DHT22;11429;50.842;4.386;2023-05-16T12:50:39;18.50;99.90
22526;DHT22;11429;50.842;4.386;2023-05-16T12:53:10;18.60;99.90
22526;DHT22;11429;50.842;4.386;2023-05-16T12:55:37;19.40;99.90
22526;DHT22;11429;50.842;4.386;2023-05-16T12:58:03;19.30;99.90
22526;DHT22;11429;50.842;4.386;2023-05-16T13:00:28;18.80;99.90
22526;DHT22;11429;50.842;4.386;2023-05-16T13:02:56;18.60;99.90
22526;DHT22;11429;50.842;4.386;2023-05-16T13:05:21;18.40;99.90
22526;DHT22;11429;50.842;4.386;2023-05-16T13:07:48;18.70;99.90
22526;DHT22;11429;50.842;4.386;2023-05-16T13:10:16;18.30;99.90
22526;DHT22;11429;50.842;4.386;2023-05-16T13:12:43;18.30;99.90
22526;DHT22;11429;50.842;4.386;2023-05-16T13:15:09;18.70;99.90
22526;DHT22;11429;50.842;4.386;2023-05-16T13:17:40;19.10;99.90
22526;DHT22;11429;50.842;4.386;2023-05-16T13:20:08;19.00;99.90
22526;DHT22;11429;50.842;4.386;2023-05-16T13:22:38;18.70;99.90
22526;DHT22;11429;50.842;4.386;2023-05-16T13:25:04;18.80;99.90
22526;DHT22;11429;50.842;4.386;2023-05-16T13:27:31;18.40;99.90
22526;DHT22;11429;50.842;4.386;2023-05-16T13:29:57;18.20;99.90
22526;DHT22;11429;50.842;4.386;2023-05-16T13:32:23;18.10;99.90
22526;DHT22;11429;50.842;4.386;2023-05-16T13:34:50;18.00;99.90
22526;DHT22;11429;50.842;4.386;2023-05-16T13:37:17;18.10;99.90
22526;DHT22;11429;50.842;4.386;2023-05-16T13:39:42;18.20;99.90
22526;DHT22;11429;50.842;4.386;2023-05-16T13:42:08;18.20;99.90
22526;DHT22;11429;50.842;4.386;2023-05-16T13:44:34;17.90;99.90
22526;DHT22;11429;50.842;4.386;2023-05-16T13:47:00;17.80;99.90
22526;DHT22;11429;50.842;4.386;2023-05-16T13:49:26;17.90;99.90
22526;DHT22;11429;50.842;4.386;2023-05-16T13:51:51;17.90;99.90
22526;DHT22;11429;50.842;4.386;2023-05-16T13:54:18;17.70;99.90
22526;DHT22;11429;50.842;4.386;2023-05-16T13:56:44;17.80;99.90
22526;DHT22;11429;50.842;4.386;2023-05-16T13:59:09;17.90;99.90
22526;DHT22;11429;50.842;4.386;2023-05-16T14:01:35;17.90;99.90
22526;DHT22;11429;50.842;4.386;2023-05-16T14:04:02;17.40;99.90
22526;DHT22;11429;50.842;4.386;2023-05-16T14:06:28;17.20;99.90
22526;DHT22;11429;50.842;4.386;2023-05-16T14:08:53;17.20;99.90
22526;DHT22;11429;50.842;4.386;2023-05-16T14:11:19;17.20;99.90
22526;DHT22;11429;50.842;4.386;2023-05-16T14:13:50;17.30;99.90
22526;DHT22;11429;50.842;4.386;2023-05-16T14:16:17;17.10;99.90
22526;DHT22;11429;50.842;4.386;2023-05-16T14:18:42;17.00;99.90
22526;DHT22;11429;50.842;4.386;2023-05-16T14:21:08;16.80;99.90
22526;DHT22;11429;50.842;4.386;2023-05-16T14:23:34;16.80;99.90
22526;DHT22;11429;50.842;4.386;2023-05-16T14:26:00;16.80;99.90
22526;DHT22;11429;50.842;4.386;2023-05-16T14:28:27;16.70;99.90
22526;DHT22;11429;50.842;4.386;2023-05-16T14:30:53;16.90;99.90
22526;DHT22;11429;50.842;4.386;2023-05-16T14:33:18;16.80;99.90
22526;DHT22;11429;50.842;4.386;2023-05-16T14:35:44;16.60;99.90
22526;DHT22;11429;50.842;4.386;2023-05-16T14:38:10;16.70;99.90
22526;DHT22;11429;50.842;4.386;2023-05-16T14:40:35;17.20;99.90
22526;DHT22;11429;50.842;4.386;2023-05-16T14:43:01;17.80;99.90
22526;DHT22;11429;50.842;4.386;2023-05-16T14:45:29;17.80;99.90
22526;DHT22;11429;50.842;4.386;2023-05-16T14:47:54;17.60;99.90
22526;DHT22;11429;50.842;4.386;2023-05-16T14:50:20;17.60;99.90
22526;DHT22;11429;50.842;4.386;2023-05-16T14:52:46;17.70;99.90
22526;DHT22;11429;50.842;4.386;2023-05-16T14:55:12;17.90;99.90
22526;DHT22;11429;50.842;4.386;2023-05-16T14:57:38;17.70;99.90
22526;DHT22;11429;50.842;4.386;2023-05-16T15:00:04;17.70;99.90
22526;DHT22;11429;50.842;4.386;2023-05-16T15:02:30;17.80;99.90
22526;DHT22;11429;50.842;4.386;2023-05-16T15:04:55;17.50;99.90
22526;DHT22;11429;50.842;4.386;2023-05-16T15:07:21;17.30;99.90
22526;DHT22;11429;50.842;4.386;2023-05-16T15:09:47;17.20;99.90
22526;DHT22;11429;50.842;4.386;2023-05-16T15:12:13;17.00;99.90
22526;DHT22;11429;50.842;4.386;2023-05-16T15:14:38;17.10;99.90
22526;DHT22;11429;50.842;4.386;2023-05-16T15:17:04;17.10;99.90
22526;DHT22;11429;50.842;4.386;2023-05-16T15:19:30;17.10;99.90
22526;DHT22;11429;50.842;4.386;2023-05-16T15:21:55;17.00;99.90
22526;DHT22;11429;50.842;4.386;2023-05-16T15:24:21;16.90;99.90
22526;DHT22;11429;50.842;4.386;2023-05-16T15:26:47;16.60;99.90
22526;DHT22;11429;50.842;4.386;2023-05-16T15:29:14;16.70;99.90
22526;DHT22;11429;50.842;4.386;2023-05-16T15:31:39;16.70;99.90
22526;DHT22;11429;50.842;4.386;2023-05-16T15:34:05;16.70;99.90
22526;DHT22;11429;50.842;4.386;2023-05-16T15:36:33;16.60;99.90
22526;DHT22;11429;50.842;4.386;2023-05-16T15:38:59;16.40;99.90
22526;DHT22;11429;50.842;4.386;2023-05-16T15:41:24;16.50;99.90
22526;DHT22;11429;50.842;4.386;2023-05-16T15:43:51;16.70;99.90
22526;DHT22;11429;50.842;4.386;2023-05-16T15:46:16;16.20;99.90
22526;DHT22;11429;50.842;4.386;2023-05-16T15:48:42;16.10;99.90